createdAt,value
2022-07-26T00:01:31.755Z,8.90
2022-07-26T00:03:59.970Z,10.45
2022-07-26T00:06:27.416Z,10.30
2022-07-26T00:08:54.622Z,10.23
2022-07-26T00:11:22.273Z,10.82
2022-07-26T00:13:49.475Z,13.55
2022-07-26T00:16:16.686Z,12.88
2022-07-26T00:18:44.135Z,12.05
2022-07-26T00:21:11.769Z,11.60
2022-07-26T00:23:39.058Z,10.25
2022-07-26T00:26:06.207Z,8.43
2022-07-26T00:28:33.448Z,11.80
2022-07-26T00:31:01.226Z,8.45
2022-07-26T00:33:28.445Z,8.65
2022-07-26T00:35:55.596Z,9.73
2022-07-26T00:38:22.804Z,12.90
2022-07-26T00:40:49.956Z,9.05
2022-07-26T00:43:17.209Z,12.50
2022-07-26T00:45:44.480Z,10.02
2022-07-26T00:48:11.740Z,10.60
2022-07-26T00:50:38.890Z,8.90
2022-07-26T00:53:06.182Z,9.45
2022-07-26T00:55:33.362Z,9.50
2022-07-26T00:58:03.686Z,11.05
2022-07-26T01:00:30.907Z,11.85
2022-07-26T01:03:00.433Z,8.77
2022-07-26T01:05:28.446Z,13.00
2022-07-26T01:07:55.870Z,9.23
2022-07-26T01:10:23.063Z,10.10
2022-07-26T01:12:50.251Z,11.48
2022-07-26T01:15:17.801Z,9.43
2022-07-26T01:17:45.507Z,13.27
2022-07-26T01:20:13.464Z,9.70
2022-07-26T01:22:41.061Z,9.05
2022-07-26T01:25:08.411Z,9.00
2022-07-26T01:27:39.410Z,10.95
2022-07-26T01:30:10.760Z,11.38
2022-07-26T01:32:38.187Z,11.27
2022-07-26T01:35:06.835Z,9.40
2022-07-26T01:37:34.025Z,11.10
2022-07-26T01:40:01.182Z,12.35
2022-07-26T01:42:28.303Z,11.35
2022-07-26T01:44:55.494Z,8.32
2022-07-26T01:47:22.675Z,11.68
2022-07-26T01:49:49.975Z,9.95
2022-07-26T01:52:17.134Z,9.23
2022-07-26T01:54:44.309Z,11.07
2022-07-26T01:57:11.432Z,11.85
2022-07-26T01:59:38.569Z,12.20
2022-07-26T02:02:05.753Z,9.60
2022-07-26T02:04:51.646Z,10.73
2022-07-26T02:07:18.803Z,9.27
2022-07-26T02:09:46.004Z,9.75
2022-07-26T02:12:14.788Z,22.23
2022-07-26T02:14:41.917Z,10.93
2022-07-26T02:17:09.419Z,9.60
2022-07-26T02:19:37.408Z,14.13
2022-07-26T02:22:05.153Z,7.73
2022-07-26T02:24:32.323Z,9.75
2022-07-26T02:27:00.254Z,14.70
2022-07-26T02:29:28.148Z,10.43
2022-07-26T02:31:56.123Z,10.23
2022-07-26T02:34:23.381Z,9.93
2022-07-26T02:36:50.790Z,11.83
2022-07-26T02:39:18.272Z,10.90
2022-07-26T02:41:45.689Z,9.13
2022-07-26T02:44:12.928Z,8.83
2022-07-26T02:46:40.203Z,13.13
2022-07-26T02:49:07.500Z,10.93
2022-07-26T02:51:34.674Z,11.50
2022-07-26T02:54:01.839Z,10.37
2022-07-26T02:56:29.317Z,10.10
2022-07-26T02:58:56.763Z,11.70
2022-07-26T03:01:24.061Z,13.10
2022-07-26T03:03:51.394Z,11.17
2022-07-26T03:06:19.124Z,13.23
2022-07-26T03:08:46.451Z,12.50
2022-07-26T03:11:13.602Z,12.50
2022-07-26T03:13:40.907Z,10.20
2022-07-26T03:16:08.515Z,15.37
2022-07-26T03:18:35.734Z,11.67
2022-07-26T03:21:03.042Z,10.97
2022-07-26T03:23:33.445Z,13.57
2022-07-26T03:26:01.792Z,12.30
2022-07-26T03:28:32.425Z,11.93
2022-07-26T03:30:59.742Z,12.77
2022-07-26T03:33:26.967Z,11.80
2022-07-26T03:35:54.107Z,13.57
2022-07-26T03:38:22.198Z,10.87
2022-07-26T03:40:49.454Z,10.23
2022-07-26T03:43:18.942Z,11.90
2022-07-26T03:45:48.445Z,11.77
2022-07-26T03:48:15.615Z,11.97
2022-07-26T03:50:43.104Z,14.80
2022-07-26T03:53:10.331Z,10.57
2022-07-26T03:55:56.016Z,10.43
2022-07-26T03:58:23.138Z,10.37
2022-07-26T04:00:50.357Z,11.33
2022-07-26T04:03:17.503Z,12.90
2022-07-26T04:05:49.029Z,10.60
2022-07-26T04:08:16.758Z,10.63
2022-07-26T04:10:53.371Z,10.60
2022-07-26T04:13:20.873Z,9.30
2022-07-26T04:15:47.994Z,11.33
2022-07-26T04:18:15.372Z,10.40
2022-07-26T04:20:43.184Z,10.23
2022-07-26T04:23:11.784Z,13.77
2022-07-26T04:25:41.257Z,11.17
2022-07-26T04:28:09.052Z,12.87
2022-07-26T04:30:36.644Z,20.33
2022-07-26T04:33:04.402Z,10.10
2022-07-26T04:35:31.669Z,14.53
2022-07-26T04:37:58.957Z,11.97
2022-07-26T04:40:28.466Z,16.97
2022-07-26T04:42:56.495Z,11.13
2022-07-26T04:45:23.659Z,11.00
2022-07-26T04:47:51.154Z,9.63
2022-07-26T04:50:19.538Z,16.33
2022-07-26T04:52:47.187Z,14.33
2022-07-26T04:55:14.384Z,12.27
2022-07-26T04:57:41.564Z,9.73
2022-07-26T05:00:24.780Z,12.33
2022-07-26T05:02:55.925Z,14.97
2022-07-26T05:05:24.181Z,19.33
2022-07-26T05:07:55.545Z,21.87
2022-07-26T05:10:23.428Z,17.50
2022-07-26T05:12:50.564Z,15.97
2022-07-26T05:15:18.279Z,19.23
2022-07-26T05:17:45.590Z,14.63
2022-07-26T05:20:14.519Z,16.67
2022-07-26T05:26:12.148Z,13.97
2022-07-26T05:28:39.578Z,21.77
2022-07-26T05:31:07.579Z,19.97
2022-07-26T05:33:34.808Z,17.07
2022-07-26T05:36:01.948Z,14.37
2022-07-26T05:38:29.108Z,21.07
2022-07-26T05:40:56.297Z,18.17
2022-07-26T05:43:23.449Z,25.90
2022-07-26T05:45:51.338Z,14.97
2022-07-26T05:48:18.522Z,17.70
2022-07-26T05:50:46.857Z,15.50
2022-07-26T05:53:14.060Z,18.70
2022-07-26T05:55:41.204Z,11.73
2022-07-26T05:58:08.375Z,11.60
2022-07-26T06:00:35.850Z,18.88
2022-07-26T06:03:21.559Z,12.60
2022-07-26T06:05:49.491Z,13.77
2022-07-26T06:08:16.709Z,11.98
2022-07-26T06:10:43.910Z,16.27
2022-07-26T06:13:11.626Z,9.65
2022-07-26T06:19:01.466Z,6.95
2022-07-26T06:21:28.598Z,10.57
2022-07-26T06:23:55.792Z,9.63
2022-07-26T06:26:23.883Z,10.27
2022-07-26T06:28:51.617Z,12.45
2022-07-26T06:31:19.225Z,10.27
2022-07-26T06:33:46.723Z,9.38
2022-07-26T06:36:14.010Z,8.13
2022-07-26T06:38:41.305Z,10.48
2022-07-26T06:41:08.487Z,7.32
2022-07-26T06:43:35.660Z,9.45
2022-07-26T06:46:02.984Z,6.90
2022-07-26T06:48:30.259Z,11.50
2022-07-26T06:50:57.598Z,11.32
2022-07-26T06:53:24.728Z,8.73
2022-07-26T06:55:51.852Z,7.10
2022-07-26T06:58:18.995Z,6.35
2022-07-26T07:00:46.157Z,8.20
2022-07-26T07:03:13.357Z,10.20
2022-07-26T07:05:40.552Z,10.15
2022-07-26T07:08:07.692Z,6.38
2022-07-26T07:10:34.858Z,6.55
2022-07-26T07:13:01.978Z,11.23
2022-07-26T07:15:29.138Z,10.90
2022-07-26T07:17:56.530Z,8.27
2022-07-26T07:20:23.721Z,8.27
2022-07-26T07:22:50.861Z,11.30
2022-07-26T07:25:18.054Z,13.85
2022-07-26T07:27:50.359Z,9.88
2022-07-26T07:30:17.580Z,9.00
2022-07-26T07:32:44.796Z,8.10
2022-07-26T07:35:12.847Z,7.55
2022-07-26T07:37:53.725Z,9.75
2022-07-26T07:40:22.113Z,9.63
2022-07-26T07:42:49.785Z,9.82
2022-07-26T07:45:17.063Z,6.93
2022-07-26T07:47:44.228Z,11.65
2022-07-26T07:50:13.150Z,8.95
2022-07-26T07:52:40.428Z,11.82
2022-07-26T07:55:40.527Z,7.07
2022-07-26T07:57:55.222Z,6.82
2022-07-26T08:00:27.232Z,8.75
2022-07-26T08:02:54.902Z,7.88
2022-07-26T08:05:22.164Z,5.45
2022-07-26T08:11:12.474Z,7.22
2022-07-26T08:13:42.414Z,8.52
2022-07-26T08:16:13.090Z,6.90
2022-07-26T08:22:04.373Z,7.97
2022-07-26T08:24:36.107Z,8.02
2022-07-26T08:27:03.215Z,8.38
2022-07-26T08:29:30.387Z,7.43
2022-07-26T08:32:34.614Z,7.10
2022-07-26T08:41:18.991Z,9.73
2022-07-26T08:43:52.181Z,7.25
2022-07-26T08:46:24.751Z,5.85
2022-07-26T08:48:53.016Z,8.10
2022-07-26T08:51:20.873Z,7.25
2022-07-26T08:53:48.694Z,7.85
2022-07-26T08:56:15.822Z,7.72
2022-07-26T08:58:43.835Z,4.97
2022-07-26T09:01:12.982Z,5.93
2022-07-26T09:03:41.035Z,4.20
2022-07-26T09:06:18.969Z,5.30
2022-07-26T09:08:47.341Z,5.43
2022-07-26T09:11:33.414Z,5.40
2022-07-26T09:14:01.871Z,7.00
2022-07-26T09:16:29.745Z,6.90
2022-07-26T09:18:57.313Z,4.05
2022-07-26T09:21:28.841Z,3.42
2022-07-26T09:23:56.653Z,8.73
2022-07-26T09:26:25.768Z,4.20
2022-07-26T09:29:03.191Z,4.95
2022-07-26T09:31:30.481Z,8.25
2022-07-26T09:33:59.874Z,5.72
2022-07-26T09:36:27.928Z,6.38
2022-07-26T09:38:57.830Z,6.05
2022-07-26T09:41:25.001Z,7.57
2022-07-26T09:43:54.258Z,6.45
2022-07-26T09:46:22.125Z,5.13
2022-07-26T09:51:36.767Z,7.47
2022-07-26T09:54:04.194Z,6.32
2022-07-26T09:56:43.257Z,4.93
2022-07-26T09:59:10.653Z,4.43
2022-07-26T10:01:37.860Z,5.45
2022-07-26T10:04:05.137Z,5.57
2022-07-26T10:06:32.669Z,7.05
2022-07-26T10:09:00.857Z,6.50
2022-07-26T10:11:29.854Z,3.38
2022-07-26T10:13:57.994Z,4.72
2022-07-26T10:16:32.960Z,8.45
2022-07-26T10:19:04.149Z,3.42
2022-07-26T10:21:32.564Z,5.13
2022-07-26T10:24:03.669Z,5.15
2022-07-26T10:26:36.508Z,3.58
2022-07-26T10:29:18.705Z,3.90
2022-07-26T10:31:49.790Z,4.75
2022-07-26T10:34:31.571Z,4.15
2022-07-26T10:36:59.888Z,3.97
2022-07-26T10:39:27.155Z,3.75
2022-07-26T10:42:02.324Z,4.65
2022-07-26T10:44:33.403Z,3.88
2022-07-26T10:47:03.589Z,3.75
2022-07-26T10:49:38.172Z,5.38
2022-07-26T10:52:11.236Z,5.20
2022-07-26T10:54:57.037Z,3.03
2022-07-26T10:57:28.663Z,4.65
2022-07-26T10:59:57.498Z,4.05
2022-07-26T11:02:28.673Z,3.45
2022-07-26T11:05:13.528Z,4.78
2022-07-26T11:07:52.957Z,4.28
2022-07-26T11:10:27.046Z,5.43
2022-07-26T11:13:03.199Z,3.83
2022-07-26T11:15:30.496Z,4.75
2022-07-26T11:18:14.297Z,6.07
2022-07-26T11:20:42.163Z,4.53
2022-07-26T11:23:21.156Z,3.03
2022-07-26T11:26:06.359Z,4.93
2022-07-26T11:28:52.841Z,4.22
2022-07-26T11:31:22.112Z,5.30
2022-07-26T11:33:50.903Z,5.82
2022-07-26T11:36:41.124Z,4.53
2022-07-26T11:39:09.752Z,2.67
2022-07-26T11:41:37.102Z,5.75
2022-07-26T11:44:04.700Z,4.88
2022-07-26T11:46:33.641Z,4.43
2022-07-26T11:49:01.151Z,3.60
2022-07-26T11:51:28.964Z,3.95
2022-07-26T11:53:59.767Z,4.00
2022-07-26T11:56:30.658Z,3.78
2022-07-26T11:58:58.013Z,3.80
2022-07-26T12:01:25.949Z,4.60
2022-07-26T12:03:53.710Z,4.30
2022-07-26T12:06:22.063Z,2.97
2022-07-26T12:08:54.153Z,6.63
2022-07-26T12:11:24.193Z,7.05
2022-07-26T12:13:55.940Z,4.82
2022-07-26T12:16:43.097Z,4.18
2022-07-26T12:19:11.911Z,6.93
2022-07-26T12:21:49.367Z,4.45
2022-07-26T12:24:35.810Z,4.35
2022-07-26T12:27:13.988Z,6.28
2022-07-26T12:29:43.046Z,5.20
2022-07-26T12:32:14.805Z,3.72
2022-07-26T12:34:42.989Z,9.77
2022-07-26T12:37:14.352Z,6.97
2022-07-26T12:39:42.727Z,6.28
2022-07-26T12:42:22.900Z,4.38
2022-07-26T12:45:01.094Z,5.00
2022-07-26T12:50:50.717Z,3.50
2022-07-26T12:53:51.730Z,4.68
2022-07-26T12:56:21.981Z,5.22
2022-07-26T12:58:49.158Z,5.25
2022-07-26T13:08:07.564Z,4.43
2022-07-26T13:10:35.948Z,4.90
2022-07-26T13:13:03.601Z,6.95
2022-07-26T13:15:36.397Z,3.97
2022-07-26T13:18:05.709Z,3.30
2022-07-26T13:20:32.931Z,2.97
2022-07-26T13:23:49.899Z,3.42
2022-07-26T13:26:17.043Z,3.75
2022-07-26T13:28:44.882Z,3.35
2022-07-26T13:31:17.042Z,4.05
2022-07-26T13:33:44.188Z,2.25
2022-07-26T13:36:11.331Z,4.10
2022-07-26T13:38:38.487Z,4.68
2022-07-26T13:41:05.810Z,2.80
2022-07-26T13:43:32.962Z,3.15
2022-07-26T13:46:00.155Z,4.70
2022-07-26T13:48:27.505Z,5.18
2022-07-26T13:50:55.086Z,6.68
2022-07-26T13:53:22.339Z,4.90
2022-07-26T13:55:49.518Z,6.20
2022-07-26T13:58:16.704Z,2.80
2022-07-26T14:00:43.867Z,3.30
2022-07-26T14:03:11.187Z,4.75
2022-07-26T14:05:38.364Z,2.38
2022-07-26T14:08:05.675Z,3.72
2022-07-26T14:10:33.021Z,3.42
2022-07-26T14:13:00.130Z,6.32
2022-07-26T14:15:27.262Z,4.25
2022-07-26T14:17:54.388Z,4.97
2022-07-26T14:20:22.292Z,7.68
2022-07-26T14:22:53.477Z,4.35
2022-07-26T14:25:21.647Z,5.07
2022-07-26T14:27:48.821Z,4.43
2022-07-26T14:30:15.973Z,4.03
2022-07-26T14:32:43.216Z,5.15
2022-07-26T14:35:10.738Z,3.75
2022-07-26T14:37:43.157Z,5.72
2022-07-26T14:40:13.217Z,8.35
2022-07-26T14:42:40.476Z,6.93
2022-07-26T14:45:08.285Z,4.10
2022-07-26T14:47:35.405Z,7.43
2022-07-26T14:50:06.412Z,3.38
2022-07-26T14:52:34.186Z,3.85
2022-07-26T14:55:01.328Z,5.65
2022-07-26T14:57:28.465Z,3.55
2022-07-26T14:59:55.777Z,3.65
2022-07-26T15:02:23.138Z,5.80
2022-07-26T15:04:50.392Z,5.70
2022-07-26T15:07:17.559Z,4.63
2022-07-26T15:09:44.672Z,4.10
2022-07-26T15:12:11.810Z,3.58
2022-07-26T15:14:39.176Z,4.95
2022-07-26T15:17:06.307Z,5.20
2022-07-26T15:19:33.440Z,6.13
2022-07-26T15:22:02.465Z,4.00
2022-07-26T15:24:30.658Z,4.85
2022-07-26T15:26:57.796Z,3.55
2022-07-26T15:29:24.929Z,4.22
2022-07-26T15:31:52.171Z,3.42
2022-07-26T15:34:19.308Z,4.90
2022-07-26T15:36:46.455Z,4.25
2022-07-26T15:39:17.091Z,4.60
2022-07-26T15:41:45.577Z,3.75
2022-07-26T15:44:13.172Z,4.68
2022-07-26T15:46:41.540Z,4.57
2022-07-26T15:49:08.710Z,5.00
2022-07-26T15:51:37.875Z,5.30
2022-07-26T15:54:06.607Z,4.68
2022-07-26T15:56:33.777Z,4.53
2022-07-26T15:59:00.865Z,6.65
2022-07-26T16:01:28.926Z,8.10
2022-07-26T16:03:56.648Z,4.15
2022-07-26T16:06:23.784Z,5.47
2022-07-26T16:09:15.371Z,4.72
2022-07-26T16:11:38.010Z,3.50
2022-07-26T16:14:05.156Z,6.68
2022-07-26T16:16:32.367Z,4.55
2022-07-26T16:18:59.697Z,4.55
2022-07-26T16:21:26.862Z,6.65
2022-07-26T16:23:53.967Z,5.55
2022-07-26T16:26:21.237Z,5.07
2022-07-26T16:28:48.355Z,4.90
2022-07-26T16:31:15.563Z,7.10
2022-07-26T16:33:46.558Z,4.22
2022-07-26T16:36:14.338Z,5.10
2022-07-26T16:38:41.531Z,5.43
2022-07-26T16:41:08.648Z,5.78
2022-07-26T16:44:06.706Z,6.28
2022-07-26T16:46:34.042Z,5.82
2022-07-26T16:49:01.273Z,5.70
2022-07-26T16:51:28.634Z,4.30
2022-07-26T16:53:55.757Z,5.20
2022-07-26T16:56:22.890Z,6.82
2022-07-26T16:58:50.053Z,9.48
2022-07-26T17:01:17.295Z,5.30
2022-07-26T17:03:44.501Z,6.95
2022-07-26T17:06:11.699Z,5.40
2022-07-26T17:08:39.011Z,6.78
2022-07-26T17:11:06.166Z,5.40
2022-07-26T17:13:33.378Z,5.80
2022-07-26T17:16:01.032Z,6.03
2022-07-26T17:18:28.484Z,5.63
2022-07-26T17:20:55.953Z,5.20
2022-07-26T17:23:23.092Z,4.78
2022-07-26T17:25:50.220Z,5.03
2022-07-26T17:28:17.468Z,7.53
2022-07-26T17:30:45.732Z,7.80
2022-07-26T17:33:12.933Z,6.40
2022-07-26T17:35:40.823Z,9.05
2022-07-26T17:38:07.981Z,6.03
2022-07-26T17:40:35.305Z,10.10
2022-07-26T17:43:02.517Z,6.70
2022-07-26T17:45:29.703Z,7.60
2022-07-26T17:47:56.928Z,4.20
2022-07-26T17:50:36.479Z,7.63
2022-07-26T17:53:04.189Z,6.00
2022-07-26T17:55:31.475Z,4.80
2022-07-26T17:57:58.766Z,8.05
2022-07-26T18:00:29.012Z,8.05
2022-07-26T18:02:56.625Z,6.80
2022-07-26T18:05:29.956Z,6.20
2022-07-26T18:08:00.804Z,8.52
2022-07-26T18:10:28.243Z,4.93
2022-07-26T18:12:55.548Z,8.43
2022-07-26T18:15:22.750Z,7.75
2022-07-26T18:17:49.928Z,10.07
2022-07-26T18:20:17.097Z,7.45
2022-07-26T18:22:45.776Z,6.65
2022-07-26T18:25:17.279Z,8.02
2022-07-26T18:27:44.410Z,4.47
2022-07-26T18:30:11.736Z,6.35
2022-07-26T18:32:38.895Z,5.88
2022-07-26T18:35:06.360Z,9.32
2022-07-26T18:37:33.511Z,4.97
2022-07-26T18:40:00.977Z,6.07
2022-07-26T18:42:28.149Z,8.02
2022-07-26T18:44:55.353Z,6.07
2022-07-26T18:47:22.530Z,3.63
2022-07-26T18:49:50.255Z,8.35
2022-07-26T18:52:28.795Z,8.40
2022-07-26T18:54:59.446Z,10.05
2022-07-26T18:57:26.590Z,4.15
2022-07-26T18:59:53.758Z,6.40
2022-07-26T19:02:20.928Z,6.57
2022-07-26T19:04:48.084Z,5.72
2022-07-26T19:07:15.225Z,4.78
2022-07-26T19:09:42.437Z,5.45
2022-07-26T19:12:09.764Z,6.20
2022-07-26T19:14:36.936Z,6.82
2022-07-26T19:17:05.840Z,8.93
2022-07-26T19:19:33.060Z,10.07
2022-07-26T19:22:00.178Z,5.80
2022-07-26T19:24:27.303Z,5.50
2022-07-26T19:26:54.415Z,8.20
2022-07-26T19:29:21.558Z,7.47
2022-07-26T19:31:48.730Z,4.20
2022-07-26T19:34:15.918Z,4.68
2022-07-26T19:36:43.136Z,5.53
2022-07-26T19:39:10.598Z,7.10
2022-07-26T19:45:00.766Z,4.57
2022-07-26T19:47:29.748Z,5.32
2022-07-26T19:49:57.364Z,4.03
2022-07-26T19:52:24.499Z,5.82
2022-07-26T19:54:51.849Z,6.40
2022-07-26T19:57:19.457Z,6.35
2022-07-26T19:59:47.343Z,5.68
2022-07-26T20:02:14.982Z,7.40
2022-07-26T20:04:45.881Z,6.25
2022-07-26T20:07:19.111Z,7.93
2022-07-26T20:09:50.098Z,5.38
2022-07-26T20:12:17.510Z,5.50
2022-07-26T20:14:45.266Z,6.85
2022-07-26T20:17:13.289Z,7.97
2022-07-26T20:19:41.259Z,9.50
2022-07-26T20:22:08.391Z,6.00
2022-07-26T20:24:35.557Z,9.25
2022-07-26T20:27:02.642Z,10.80
2022-07-26T20:29:29.862Z,8.13
2022-07-26T20:31:56.969Z,9.23
2022-07-26T20:34:24.108Z,9.02
2022-07-26T20:36:53.450Z,8.68
2022-07-26T20:39:20.840Z,8.57
2022-07-26T20:41:48.017Z,10.57
2022-07-26T20:44:15.117Z,10.00
2022-07-26T20:46:42.305Z,7.80
2022-07-26T20:49:10.272Z,8.50
2022-07-26T20:51:38.022Z,8.57
2022-07-26T20:54:05.806Z,10.10
2022-07-26T20:56:33.106Z,9.35
2022-07-26T20:59:02.227Z,7.75
2022-07-26T21:01:30.433Z,7.68
2022-07-26T21:03:58.015Z,9.27
2022-07-26T21:06:25.635Z,12.40
2022-07-26T21:08:57.656Z,10.43
2022-07-26T21:11:24.876Z,8.70
2022-07-26T21:13:53.109Z,10.15
2022-07-26T21:16:20.492Z,8.57
2022-07-26T21:18:52.696Z,8.73
2022-07-26T21:21:20.367Z,11.30
2022-07-26T21:23:47.520Z,6.80
2022-07-26T21:26:14.645Z,10.15
2022-07-26T21:28:41.913Z,10.32
2022-07-26T21:31:09.054Z,8.50
2022-07-26T21:33:36.231Z,10.00
2022-07-26T21:36:03.370Z,9.18
2022-07-26T21:38:31.982Z,7.97
2022-07-26T21:40:59.651Z,12.52
2022-07-26T21:43:27.042Z,7.68
2022-07-26T21:45:54.251Z,13.82
2022-07-26T21:48:21.920Z,8.50
2022-07-26T21:50:49.066Z,8.43
2022-07-26T21:53:16.265Z,11.60
2022-07-26T21:55:43.528Z,9.65
2022-07-26T21:58:10.778Z,8.25
2022-07-26T22:00:39.196Z,10.32
2022-07-26T22:03:07.121Z,6.97
2022-07-26T22:05:42.421Z,8.57
2022-07-26T22:08:11.185Z,10.23
2022-07-26T22:10:44.282Z,7.05
2022-07-26T22:13:12.599Z,9.57
2022-07-26T22:15:39.750Z,8.48
2022-07-26T22:18:09.579Z,11.52
2022-07-26T22:20:37.021Z,7.55
2022-07-26T22:23:08.868Z,9.07
2022-07-26T22:25:36.446Z,9.20
2022-07-26T22:28:04.367Z,9.55
2022-07-26T22:30:31.530Z,8.55
2022-07-26T22:33:02.857Z,7.90
2022-07-26T22:35:33.490Z,7.90
2022-07-26T22:38:04.954Z,8.68
2022-07-26T22:40:32.934Z,8.30
2022-07-26T22:43:00.271Z,7.30
2022-07-26T22:45:27.779Z,7.93
2022-07-26T22:47:56.156Z,8.95
2022-07-26T22:50:24.818Z,9.73
2022-07-26T22:52:52.202Z,8.95
2022-07-26T22:55:19.346Z,8.90
2022-07-26T22:57:46.539Z,8.63
2022-07-26T23:00:14.682Z,9.17
2022-07-26T23:02:41.882Z,7.68
2022-07-26T23:05:10.029Z,8.02
2022-07-26T23:07:37.783Z,9.55
2022-07-26T23:10:06.116Z,8.93
2022-07-26T23:12:33.751Z,8.50
2022-07-26T23:15:00.885Z,9.73
2022-07-26T23:17:28.023Z,9.48
2022-07-26T23:19:55.195Z,8.33
2022-07-26T23:22:22.421Z,8.93
2022-07-26T23:24:49.584Z,10.43
2022-07-26T23:27:19.969Z,7.85
2022-07-26T23:29:48.224Z,8.25
2022-07-26T23:32:16.230Z,8.97
2022-07-26T23:34:43.445Z,8.23
2022-07-26T23:37:10.564Z,9.23
2022-07-26T23:39:37.694Z,7.23
2022-07-26T23:42:04.897Z,5.60
2022-07-26T23:44:32.041Z,8.10
2022-07-26T23:46:59.556Z,8.33
2022-07-26T23:49:26.776Z,7.77
2022-07-26T23:51:53.939Z,8.00
2022-07-26T23:54:21.123Z,6.90
2022-07-26T23:56:48.316Z,7.13
2022-07-26T23:59:15.834Z,8.33
